Time;durP1;ratioP1;P1;durP2;ratioP2;P2;SDS_P1;SDS_P2;PMS_P1;PMS_P2;Temp;Humidity;BMP_temperature;BMP_pressure;BME280_temperature;BME280_humidity;BME280_pressure;Samples;Min_cycle;Max_cycle;Signal;HPM_P1;HPM_P2
2022/07/25 00:00:23;;;;;;;3.55;3.25;;;21.00;99.90;;;;;;4841357;29;20066;-66
2022/07/25 00:02:49;;;;;;;4.07;3.75;;;21.00;99.90;;;;;;4838091;29;20201;-66
2022/07/25 00:05:14;;;;;;;3.75;3.30;;;20.90;99.90;;;;;;4838156;29;20149;-66
2022/07/25 00:07:40;;;;;;;4.68;3.97;;;20.90;99.90;;;;;;4834129;29;20177;-66
2022/07/25 00:10:06;;;;;;;5.60;3.88;;;20.90;99.90;;;;;;4824280;29;20054;-66
2022/07/25 00:12:32;;;;;;;3.83;3.40;;;20.80;99.90;;;;;;4829455;29;20065;-66
2022/07/25 00:14:58;;;;;;;4.50;4.10;;;20.80;99.90;;;;;;4839269;29;20054;-66
2022/07/25 00:17:23;;;;;;;4.53;4.13;;;20.80;99.90;;;;;;4840274;29;20056;-66
2022/07/25 00:19:49;;;;;;;4.65;4.25;;;20.80;99.90;;;;;;4839117;29;20523;-66
2022/07/25 00:22:14;;;;;;;7.15;4.93;;;20.80;99.90;;;;;;4838669;29;20050;-66
2022/07/25 00:24:40;;;;;;;5.55;4.80;;;20.70;99.90;;;;;;4842365;29;20061;-66
2022/07/25 00:27:05;;;;;;;6.15;5.32;;;20.70;99.90;;;;;;4840326;29;20049;-66
2022/07/25 00:29:31;;;;;;;6.25;4.63;;;20.70;99.90;;;;;;4842148;29;20069;-66
2022/07/25 00:31:57;;;;;;;4.57;4.22;;;20.70;99.90;;;;;;4840029;29;20081;-66
2022/07/25 00:34:22;;;;;;;5.53;5.13;;;20.90;99.90;;;;;;4839954;29;20449;-66
2022/07/25 00:36:48;;;;;;;5.00;4.60;;;20.70;99.90;;;;;;4839294;29;20058;-66
2022/07/25 00:39:13;;;;;;;5.47;4.97;;;20.60;99.90;;;;;;4842091;29;20088;-66
2022/07/25 00:41:39;;;;;;;5.57;5.07;;;20.60;99.90;;;;;;4837021;29;20069;-66
2022/07/25 00:44:05;;;;;;;5.35;4.85;;;20.60;99.90;;;;;;4840198;29;20408;-66
2022/07/25 00:46:30;;;;;;;6.00;5.40;;;20.50;99.90;;;;;;4837454;29;20058;-66
2022/07/25 00:48:56;;;;;;;5.45;4.60;;;20.50;99.90;;;;;;4841696;29;20064;-66
2022/07/25 00:51:22;;;;;;;5.53;4.78;;;20.50;99.90;;;;;;4839413;29;20054;-66
2022/07/25 00:53:47;;;;;;;6.97;5.30;;;20.50;99.90;;;;;;4839477;29;20054;-66
2022/07/25 00:56:14;;;;;;;5.40;4.90;;;20.40;99.90;;;;;;4842173;29;20137;-66
2022/07/25 00:58:40;;;;;;;5.80;5.32;;;20.40;99.90;;;;;;4840544;29;20062;-66
2022/07/25 01:01:05;;;;;;;5.93;5.32;;;20.30;99.90;;;;;;4839647;29;20061;-66
2022/07/25 01:03:31;;;;;;;5.90;5.40;;;20.30;99.90;;;;;;4842012;29;20130;-66
2022/07/25 01:05:57;;;;;;;7.15;6.45;;;20.30;99.90;;;;;;4819160;29;20086;-66
2022/07/25 01:08:23;;;;;;;6.15;5.65;;;20.30;99.90;;;;;;4839131;29;20054;-66
2022/07/25 01:10:48;;;;;;;7.30;6.18;;;20.30;99.90;;;;;;4841056;29;20182;-66
2022/07/25 01:13:14;;;;;;;7.63;6.78;;;20.20;99.90;;;;;;4836792;29;20476;-66
2022/07/25 01:15:41;;;;;;;7.50;6.80;;;20.20;99.90;;;;;;4842486;29;20054;-66
2022/07/25 01:18:07;;;;;;;8.07;7.28;;;20.30;99.90;;;;;;4827044;29;20110;-66
2022/07/25 01:20:32;;;;;;;7.35;6.65;;;20.20;99.90;;;;;;4826500;29;20054;-66
2022/07/25 01:22:59;;;;;;;9.32;7.47;;;20.20;99.90;;;;;;4843312;29;20050;-66
2022/07/25 01:25:25;;;;;;;8.02;7.30;;;20.10;99.90;;;;;;4843015;29;20069;-66
2022/07/25 01:27:52;;;;;;;7.53;6.85;;;20.10;99.90;;;;;;4843070;29;20136;-66
2022/07/25 01:30:18;;;;;;;9.35;7.68;;;20.10;99.90;;;;;;4843795;29;20066;-66
2022/07/25 01:32:44;;;;;;;8.70;7.88;;;20.10;99.90;;;;;;4844745;29;20133;-66
2022/07/25 01:35:11;;;;;;;8.45;7.65;;;20.10;99.90;;;;;;4842469;29;20125;-66
2022/07/25 01:37:37;;;;;;;9.32;8.35;;;20.10;99.90;;;;;;4844416;29;20050;-66
2022/07/25 01:40:04;;;;;;;9.90;8.88;;;20.10;99.90;;;;;;4840865;29;20514;-66
2022/07/25 01:42:30;;;;;;;9.52;8.63;;;20.10;99.90;;;;;;4842463;29;20142;-66
2022/07/25 01:44:55;;;;;;;9.35;8.35;;;20.10;99.90;;;;;;4842141;29;20042;-66
2022/07/25 01:47:21;;;;;;;10.65;9.02;;;20.00;99.90;;;;;;4842427;29;20068;-66
2022/07/25 01:49:47;;;;;;;9.45;8.60;;;20.00;99.90;;;;;;4844398;29;20132;-66
2022/07/25 01:52:13;;;;;;;9.75;8.85;;;20.00;99.90;;;;;;4837689;29;20515;-66
2022/07/25 01:54:39;;;;;;;8.98;8.07;;;20.00;99.90;;;;;;4840725;29;20062;-66
2022/07/25 01:57:05;;;;;;;9.98;8.98;;;20.10;99.90;;;;;;4844272;29;20082;-66
2022/07/25 01:59:31;;;;;;;9.38;8.43;;;20.00;99.90;;;;;;4843438;29;20089;-66
2022/07/25 02:01:57;;;;;;;11.10;9.15;;;20.00;99.90;;;;;;4840876;29;20085;-66
2022/07/25 02:04:22;;;;;;;8.68;7.95;;;19.90;99.90;;;;;;4841572;29;20408;-66
2022/07/25 02:06:48;;;;;;;10.27;9.23;;;19.90;99.90;;;;;;4838504;29;20065;-66
2022/07/25 02:09:14;;;;;;;13.05;9.35;;;19.90;99.90;;;;;;4828033;29;20061;-66
2022/07/25 02:11:39;;;;;;;10.57;9.57;;;19.80;99.90;;;;;;4837187;29;20042;-66
2022/07/25 02:14:05;;;;;;;12.05;9.07;;;19.80;99.90;;;;;;4839787;29;20133;-66
2022/07/25 02:16:31;;;;;;;9.88;8.90;;;19.80;99.90;;;;;;4840571;29;20087;-66
2022/07/25 02:18:56;;;;;;;10.68;9.45;;;19.80;99.90;;;;;;4841571;29;20488;-66
2022/07/25 02:21:22;;;;;;;10.20;9.00;;;19.70;99.90;;;;;;4843981;29;20045;-66
2022/07/25 02:23:48;;;;;;;10.32;9.32;;;19.70;99.90;;;;;;4841603;29;20518;-66
2022/07/25 02:26:13;;;;;;;10.02;9.13;;;19.60;99.90;;;;;;4843661;29;20503;-66
2022/07/25 02:28:39;;;;;;;9.13;8.32;;;19.60;99.90;;;;;;4839650;29;20049;-66
2022/07/25 02:31:06;;;;;;;9.93;9.00;;;19.60;99.90;;;;;;4842509;29;20062;-66
2022/07/25 02:33:31;;;;;;;8.38;7.60;;;19.50;99.90;;;;;;4841953;29;20068;-66
2022/07/25 02:35:57;;;;;;;10.57;9.23;;;19.50;99.90;;;;;;4842929;29;20050;-66
2022/07/25 02:38:22;;;;;;;9.80;8.90;;;19.50;99.90;;;;;;4844252;29;20061;-66
2022/07/25 02:40:50;;;;;;;11.20;10.07;;;19.50;99.90;;;;;;4838422;29;20161;-66
2022/07/25 02:43:16;;;;;;;9.70;8.70;;;19.40;99.90;;;;;;4840910;29;20053;-66
2022/07/25 02:45:41;;;;;;;10.00;8.98;;;19.40;99.90;;;;;;4840200;29;20054;-66
2022/07/25 02:48:07;;;;;;;9.65;8.75;;;19.40;99.90;;;;;;4841219;29;20412;-66
2022/07/25 02:50:33;;;;;;;10.13;8.88;;;19.40;99.90;;;;;;4843569;29;20050;-66
2022/07/25 02:52:58;;;;;;;10.02;9.02;;;19.40;99.90;;;;;;4841892;29;20059;-66
2022/07/25 02:55:24;;;;;;;10.82;9.73;;;19.40;99.90;;;;;;4842930;29;20129;-66
2022/07/25 02:57:50;;;;;;;10.25;9.23;;;19.40;99.90;;;;;;4842048;29;20062;-66
2022/07/25 03:00:16;;;;;;;10.55;9.55;;;19.40;99.90;;;;;;4842266;29;20145;-66
2022/07/25 03:02:42;;;;;;;9.88;8.93;;;19.40;99.90;;;;;;4840417;29;20165;-66
2022/07/25 03:05:10;;;;;;;10.88;9.77;;;19.40;99.90;;;;;;4843396;29;20549;-66
2022/07/25 03:07:36;;;;;;;10.85;9.65;;;19.30;99.90;;;;;;4840926;29;20058;-66
2022/07/25 03:10:02;;;;;;;10.63;9.65;;;19.30;99.90;;;;;;4842037;29;20137;-66
2022/07/25 03:12:28;;;;;;;11.48;9.63;;;19.40;99.90;;;;;;4837314;29;20499;-66
2022/07/25 03:14:54;;;;;;;11.73;10.52;;;19.30;99.90;;;;;;4838698;29;20066;-66
2022/07/25 03:17:19;;;;;;;11.63;10.43;;;19.30;99.90;;;;;;4823023;29;20173;-66
2022/07/25 03:19:45;;;;;;;11.13;10.02;;;19.20;99.90;;;;;;4840315;29;20049;-66
2022/07/25 03:22:10;;;;;;;11.70;10.55;;;19.20;99.90;;;;;;4842372;29;20061;-66
2022/07/25 03:24:36;;;;;;;11.38;10.35;;;19.20;99.90;;;;;;4841107;29;20059;-66
2022/07/25 03:27:02;;;;;;;11.18;10.00;;;19.20;99.90;;;;;;4842469;29;20052;-66
2022/07/25 03:29:27;;;;;;;11.90;10.30;;;19.10;99.90;;;;;;4824873;29;20061;-66
2022/07/25 03:31:53;;;;;;;11.45;10.45;;;19.10;99.90;;;;;;4838697;29;20089;-66
2022/07/25 03:34:18;;;;;;;11.75;10.57;;;19.10;99.90;;;;;;4842494;29;20046;-66
2022/07/25 03:36:46;;;;;;;12.32;10.48;;;19.10;99.90;;;;;;4837460;29;20494;-66
2022/07/25 03:39:13;;;;;;;12.48;11.10;;;19.10;99.90;;;;;;4843062;29;20058;-66
2022/07/25 03:41:39;;;;;;;13.07;11.73;;;19.10;99.90;;;;;;4838720;29;20076;-66
2022/07/25 03:44:07;;;;;;;11.90;10.38;;;19.10;99.90;;;;;;4839487;29;20049;-66
2022/07/25 03:46:33;;;;;;;12.73;11.18;;;19.10;99.90;;;;;;4842419;29;20054;-66
2022/07/25 03:48:58;;;;;;;12.23;11.02;;;19.10;99.90;;;;;;4838155;29;20092;-66
2022/07/25 03:51:24;;;;;;;12.90;11.70;;;19.10;99.90;;;;;;4837281;29;20053;-65
2022/07/25 03:54:02;;;;;;;13.30;11.80;;;19.10;99.90;;;;;;4839057;29;20115;-66
2022/07/25 03:56:36;;;;;;;12.55;11.27;;;19.10;99.90;;;;;;4840749;29;20058;-66
2022/07/25 03:59:03;;;;;;;12.55;11.25;;;19.10;99.90;;;;;;4840023;29;20077;-66
2022/07/25 04:01:28;;;;;;;12.38;11.18;;;19.10;99.90;;;;;;4842770;29;20061;-66
2022/07/25 04:03:54;;;;;;;13.43;12.05;;;19.10;99.90;;;;;;4837768;29;20389;-66
2022/07/25 04:06:19;;;;;;;13.57;11.80;;;19.20;99.90;;;;;;4841927;29;20357;-66
2022/07/25 04:08:45;;;;;;;12.73;11.43;;;19.10;99.90;;;;;;4838155;29;20054;-66
2022/07/25 04:11:11;;;;;;;14.68;12.05;;;19.10;99.90;;;;;;4839593;29;20057;-66
2022/07/25 04:13:36;;;;;;;15.95;11.93;;;19.10;99.90;;;;;;4836265;29;20088;-66
2022/07/25 04:16:02;;;;;;;12.90;11.07;;;19.10;99.90;;;;;;4840693;29;20104;-66
2022/07/25 04:18:28;;;;;;;12.75;11.35;;;19.10;99.90;;;;;;4838203;29;20042;-66
2022/07/25 04:20:53;;;;;;;12.02;10.75;;;19.10;99.90;;;;;;4833549;29;20058;-66
2022/07/25 04:23:19;;;;;;;13.73;11.27;;;19.10;99.90;;;;;;4823705;29;20050;-66
2022/07/25 04:25:44;;;;;;;12.43;11.23;;;19.10;99.90;;;;;;4840570;29;20062;-66
2022/07/25 04:28:10;;;;;;;12.07;10.95;;;19.20;99.90;;;;;;4839034;29;20098;-66
2022/07/25 04:30:36;;;;;;;11.98;10.77;;;19.20;99.90;;;;;;4841845;29;20146;-66
2022/07/25 04:33:02;;;;;;;11.55;10.07;;;19.40;99.90;;;;;;4839336;29;20341;-66
2022/07/25 04:35:27;;;;;;;11.30;9.95;;;19.40;99.90;;;;;;4840242;29;20125;-66
2022/07/25 04:37:53;;;;;;;11.38;10.32;;;19.50;99.90;;;;;;4823065;29;20061;-66
2022/07/25 04:40:18;;;;;;;12.27;11.18;;;19.50;99.90;;;;;;4840826;29;20064;-66
2022/07/25 04:42:44;;;;;;;12.35;11.02;;;19.60;99.90;;;;;;4839514;29;20187;-66
2022/07/25 04:45:10;;;;;;;12.88;10.90;;;19.70;99.90;;;;;;4838778;29;20078;-66
2022/07/25 04:47:35;;;;;;;12.30;11.10;;;19.80;99.90;;;;;;4840257;29;20041;-66
2022/07/25 04:50:01;;;;;;;11.75;10.63;;;19.90;99.90;;;;;;4842557;29;20145;-66
2022/07/25 04:52:26;;;;;;;14.23;10.82;;;20.00;99.90;;;;;;4841931;29;20517;-66
2022/07/25 04:54:52;;;;;;;12.55;11.20;;;20.10;99.90;;;;;;4845686;29;20072;-66
2022/07/25 04:57:18;;;;;;;13.30;10.93;;;20.10;99.90;;;;;;4843868;29;20532;-67
2022/07/25 04:59:44;;;;;;;12.70;11.43;;;20.20;99.90;;;;;;4844665;29;20530;-66
2022/07/25 05:02:10;;;;;;;11.88;10.73;;;20.30;99.90;;;;;;4840511;29;20046;-66
2022/07/25 05:04:36;;;;;;;13.02;11.73;;;20.30;99.90;;;;;;4842911;29;20397;-66
2022/07/25 05:07:02;;;;;;;13.10;11.80;;;20.30;99.90;;;;;;4845269;29;20054;-66
2022/07/25 05:09:27;;;;;;;12.18;10.90;;;20.50;99.90;;;;;;4843361;29;20108;-66
2022/07/25 05:11:53;;;;;;;13.32;11.93;;;20.60;99.90;;;;;;4845264;29;20118;-66
2022/07/25 05:14:19;;;;;;;13.93;12.57;;;20.70;99.90;;;;;;4839575;29;20083;-66
2022/07/25 05:16:44;;;;;;;13.30;11.60;;;20.80;99.90;;;;;;4838797;29;20042;-66
2022/07/25 05:19:10;;;;;;;14.07;12.32;;;20.90;99.90;;;;;;4841353;29;20058;-67
2022/07/25 05:21:37;;;;;;;13.38;12.18;;;21.00;99.90;;;;;;4836860;29;20062;-67
2022/07/25 05:24:27;;;;;;;14.20;12.90;;;21.10;99.90;;;;;;4835578;29;20054;-66
2022/07/25 05:26:53;;;;;;;13.63;11.60;;;21.20;99.90;;;;;;4835226;29;20522;-67
2022/07/25 05:30:03;;;;;;;13.40;11.93;;;21.20;99.90;;;;;;4840743;29;20129;-67
2022/07/25 05:32:34;;;;;;;12.98;11.77;;;21.20;99.90;;;;;;4844761;29;20054;-66
2022/07/25 05:35:00;;;;;;;13.55;11.95;;;21.40;99.90;;;;;;4842103;29;20121;-66
2022/07/25 05:37:27;;;;;;;13.27;12.05;;;21.40;99.90;;;;;;4843588;29;20137;-66
2022/07/25 05:40:25;;;;;;;16.00;11.68;;;21.50;99.90;;;;;;4840586;29;20050;-66
2022/07/25 05:47:12;;;;;;;12.80;11.43;;;21.80;99.90;;;;;;4844379;29;20500;-66
2022/07/25 05:49:43;;;;;;;13.32;11.70;;;22.10;99.90;;;;;;4811528;29;20089;-66
2022/07/25 05:52:09;;;;;;;14.27;11.93;;;22.10;99.90;;;;;;4842113;29;20053;-66
2022/07/25 05:54:35;;;;;;;12.15;10.95;;;22.00;99.90;;;;;;4841914;29;20052;-66
2022/07/25 05:57:01;;;;;;;12.73;11.43;;;22.30;99.90;;;;;;4844669;29;20053;-66
2022/07/25 05:59:26;;;;;;;12.55;11.32;;;22.30;99.90;;;;;;4841676;29;20096;-66
2022/07/25 06:01:52;;;;;;;13.75;12.55;;;22.30;99.90;;;;;;4844675;29;20089;-66
2022/07/25 06:04:18;;;;;;;12.50;11.25;;;22.70;99.90;;;;;;4844279;29;20097;-67
2022/07/25 06:06:49;;;;;;;15.50;12.63;;;23.00;99.90;;;;;;4843501;29;20064;-67
2022/07/25 06:09:20;;;;;;;12.95;11.68;;;23.00;99.90;;;;;;4842978;29;20180;-69
2022/07/25 06:11:45;;;;;;;12.77;11.40;;;23.00;99.90;;;;;;4842784;29;20153;-67
2022/07/25 06:14:11;;;;;;;13.38;11.55;;;23.30;99.90;;;;;;4844186;29;20177;-67
2022/07/25 06:16:37;;;;;;;15.80;11.15;;;23.50;99.90;;;;;;4844095;29;20046;-67
2022/07/25 06:19:02;;;;;;;13.32;11.95;;;23.60;99.90;;;;;;4843919;29;20503;-67
2022/07/25 06:21:28;;;;;;;12.63;10.57;;;23.80;99.90;;;;;;4826923;29;20054;-66
2022/07/25 06:23:53;;;;;;;11.90;10.70;;;23.90;99.90;;;;;;4825778;29;20101;-67
2022/07/25 06:26:20;;;;;;;11.15;9.93;;;24.10;99.90;;;;;;4842953;29;20065;-67
2022/07/25 06:28:45;;;;;;;11.15;10.05;;;24.90;99.90;;;;;;4842764;29;20491;-67
2022/07/25 06:31:11;;;;;;;11.07;10.05;;;25.30;99.90;;;;;;4842998;29;20064;-67
2022/07/25 06:33:37;;;;;;;11.73;10.52;;;25.70;99.90;;;;;;4842543;29;20058;-67
2022/07/25 06:36:04;;;;;;;11.82;10.63;;;25.70;99.90;;;;;;4842719;29;20488;-67
2022/07/25 06:38:30;;;;;;;11.10;10.13;;;25.60;99.90;;;;;;4843615;29;20057;-67
2022/07/25 06:40:55;;;;;;;11.13;10.02;;;25.50;99.90;;;;;;4838155;29;20050;-67
2022/07/25 06:43:21;;;;;;;10.70;9.60;;;25.30;99.90;;;;;;4842216;29;20053;-66
2022/07/25 06:45:47;;;;;;;11.75;10.52;;;25.20;99.90;;;;;;4842797;29;20057;-66
2022/07/25 06:48:14;;;;;;;12.30;9.57;;;25.10;99.90;;;;;;4841448;29;20049;-66
2022/07/25 06:50:40;;;;;;;10.60;9.57;;;25.10;99.90;;;;;;4841016;29;20062;-67
2022/07/25 06:53:05;;;;;;;10.90;9.90;;;25.10;99.90;;;;;;4843190;29;20507;-67
2022/07/25 06:55:31;;;;;;;13.27;10.30;;;25.10;99.90;;;;;;4843376;29;20495;-67
2022/07/25 06:57:57;;;;;;;11.48;10.30;;;25.10;99.90;;;;;;4841637;29;20062;-67
2022/07/25 07:00:22;;;;;;;10.07;9.18;;;25.20;99.90;;;;;;4843396;29;20068;-67
2022/07/25 07:02:57;;;;;;;10.65;9.48;;;25.30;99.90;;;;;;4842967;29;20404;-67
2022/07/25 07:05:28;;;;;;;9.45;8.63;;;25.40;99.90;;;;;;4825056;29;20065;-67
2022/07/25 07:07:54;;;;;;;9.45;8.45;;;25.40;99.90;;;;;;4824503;29;20062;-67
2022/07/25 07:10:21;;;;;;;9.38;8.43;;;25.40;99.90;;;;;;4839021;29;20077;-67
2022/07/25 07:12:47;;;;;;;9.35;7.85;;;25.50;99.90;;;;;;4826716;29;20058;-67
2022/07/25 07:15:14;;;;;;;11.13;8.73;;;25.50;99.90;;;;;;4841828;29;20547;-67
2022/07/25 07:17:40;;;;;;;9.50;8.50;;;25.60;99.90;;;;;;4842794;29;20519;-67
2022/07/25 07:20:07;;;;;;;9.15;8.35;;;25.70;99.90;;;;;;4843022;29;20469;-67
2022/07/25 07:22:45;;;;;;;10.32;9.23;;;25.80;99.90;;;;;;4842244;29;20499;-67
2022/07/25 07:25:16;;;;;;;9.93;8.93;;;26.00;99.90;;;;;;4841615;29;20531;-67
2022/07/25 07:27:42;;;;;;;9.90;8.77;;;26.00;99.90;;;;;;4841343;29;20130;-67
2022/07/25 07:30:09;;;;;;;9.23;8.32;;;26.10;99.90;;;;;;4842899;29;20057;-67
2022/07/25 07:32:35;;;;;;;9.77;8.88;;;26.20;99.90;;;;;;4842931;29;20061;-67
2022/07/25 07:35:00;;;;;;;9.55;8.65;;;26.20;99.90;;;;;;4842798;29;20126;-67
2022/07/25 07:37:26;;;;;;;12.27;9.23;;;26.30;99.90;;;;;;4840742;29;20559;-67
2022/07/25 07:39:51;;;;;;;9.77;8.75;;;26.30;99.90;;;;;;4842719;29;20069;-67
2022/07/25 07:42:17;;;;;;;9.70;8.70;;;26.10;99.90;;;;;;4842277;29;20128;-67
2022/07/25 07:44:42;;;;;;;10.18;9.13;;;26.00;99.90;;;;;;4842464;29;20050;-67
2022/07/25 07:47:08;;;;;;;10.55;9.02;;;25.70;99.90;;;;;;4842283;29;20053;-67
2022/07/25 07:49:34;;;;;;;10.90;9.80;;;25.70;99.90;;;;;;4842622;29;20062;-67
2022/07/25 07:51:59;;;;;;;10.73;9.70;;;25.60;99.90;;;;;;4841033;29;20061;-67
2022/07/25 07:57:09;;;;;;;11.77;10.60;;;25.70;99.90;;;;;;4841789;29;20057;-66
2022/07/25 07:59:34;;;;;;;12.32;11.00;;;25.60;99.90;;;;;;4842124;29;20062;-66
2022/07/25 08:02:00;;;;;;;12.68;10.70;;;25.60;99.90;;;;;;4841491;29;20057;-66
2022/07/25 08:04:26;;;;;;;12.43;10.10;;;25.60;99.90;;;;;;4842154;29;20466;-66
2022/07/25 08:06:52;;;;;;;11.98;10.63;;;25.60;99.90;;;;;;4839901;29;20050;-66
2022/07/25 08:09:18;;;;;;;11.48;10.40;;;25.60;99.90;;;;;;4841633;29;20053;-66
2022/07/25 08:11:43;;;;;;;11.00;10.00;;;25.70;99.90;;;;;;4839340;29;20510;-65
2022/07/25 08:14:09;;;;;;;10.30;9.30;;;25.70;99.90;;;;;;4842189;29;20092;-65
2022/07/25 08:16:35;;;;;;;10.30;9.20;;;25.70;99.90;;;;;;4841929;29;20049;-66
2022/07/25 08:19:00;;;;;;;10.10;9.10;;;25.70;99.90;;;;;;4856507;29;20054;-66
2022/07/25 08:21:26;;;;;;;9.82;8.93;;;25.60;99.90;;;;;;4841607;29;20046;-65
2022/07/25 08:23:52;;;;;;;9.20;8.30;;;25.30;99.90;;;;;;4841434;29;20050;-65
2022/07/25 08:26:17;;;;;;;9.70;8.80;;;25.20;99.90;;;;;;4841569;29;20061;-66
2022/07/25 08:28:43;;;;;;;9.27;7.85;;;25.10;99.90;;;;;;4836497;29;20106;-66
2022/07/25 08:31:09;;;;;;;8.98;8.07;;;25.20;99.90;;;;;;4841612;29;20065;-65
2022/07/25 08:33:34;;;;;;;8.50;7.70;;;25.40;99.90;;;;;;4839670;29;20149;-66
2022/07/25 08:36:00;;;;;;;7.93;7.13;;;25.50;99.90;;;;;;4839539;29;20041;-65
2022/07/25 08:38:27;;;;;;;7.80;7.10;;;25.70;99.90;;;;;;4842180;29;20054;-66
2022/07/25 08:40:54;;;;;;;8.10;7.10;;;25.70;99.90;;;;;;4840065;29;20062;-66
2022/07/25 08:43:20;;;;;;;8.32;7.47;;;25.70;99.90;;;;;;4842266;29;20097;-66
2022/07/25 08:45:53;;;;;;;6.95;6.40;;;25.60;99.90;;;;;;4841023;29;20530;-66
2022/07/25 08:48:21;;;;;;;7.57;6.85;;;25.60;99.90;;;;;;4838472;29;20145;-67
2022/07/25 08:50:48;;;;;;;9.52;7.32;;;25.40;99.90;;;;;;4839346;29;20062;-66
2022/07/25 08:53:17;;;;;;;7.63;6.85;;;25.30;99.90;;;;;;4841745;29;20050;-66
2022/07/25 08:55:44;;;;;;;11.13;7.22;;;25.20;99.90;;;;;;4841821;29;20046;-66
2022/07/25 08:58:13;;;;;;;8.05;7.03;;;25.00;99.90;;;;;;4841782;29;20093;-66
2022/07/25 09:00:39;;;;;;;7.25;6.55;;;24.90;99.90;;;;;;4839233;29;20050;-66
2022/07/25 09:03:05;;;;;;;7.47;6.78;;;24.80;99.90;;;;;;4840895;29;20411;-66
2022/07/25 09:05:31;;;;;;;10.52;6.47;;;24.80;99.90;;;;;;4840011;29;20508;-66
2022/07/25 09:08:08;;;;;;;7.60;6.72;;;24.80;99.90;;;;;;4839601;29;20050;-67
2022/07/25 09:10:34;;;;;;;6.80;6.10;;;24.70;99.90;;;;;;4841717;29;20050;-68
2022/07/25 09:13:06;;;;;;;6.95;6.35;;;24.70;99.90;;;;;;4841553;29;20142;-68
2022/07/25 09:15:35;;;;;;;7.65;6.95;;;24.80;99.90;;;;;;4838908;29;20103;-67
2022/07/25 09:18:06;;;;;;;8.48;7.68;;;24.80;99.90;;;;;;4838394;29;20518;-67
2022/07/25 09:21:02;;;;;;;8.77;7.90;;;24.90;99.90;;;;;;4841787;29;20046;-67
2022/07/25 09:23:30;;;;;;;8.95;8.05;;;24.90;99.90;;;;;;4825362;29;20076;-67
2022/07/25 09:26:12;;;;;;;7.85;7.18;;;25.00;99.90;;;;;;4840596;29;20057;-67
2022/07/25 09:28:46;;;;;;;6.53;5.95;;;25.00;99.90;;;;;;4840244;29;20057;-67
2022/07/25 09:31:12;;;;;;;6.78;6.18;;;25.10;99.90;;;;;;4841539;29;20054;-66
2022/07/25 09:33:57;;;;;;;5.93;5.43;;;25.20;99.90;;;;;;4840687;29;20092;-67
2022/07/25 09:36:23;;;;;;;5.45;4.80;;;25.20;99.90;;;;;;4827402;29;20487;-67
2022/07/25 09:38:54;;;;;;;3.58;3.28;;;25.20;99.90;;;;;;4845271;29;20090;-68
2022/07/25 09:41:21;;;;;;;3.33;2.50;;;25.20;99.90;;;;;;4828036;29;20137;-67
2022/07/25 09:43:47;;;;;;;2.75;2.33;;;25.20;99.90;;;;;;4844591;29;20062;-67
2022/07/25 09:46:12;;;;;;;2.70;2.20;;;25.40;99.90;;;;;;4843349;29;20064;-67
2022/07/25 09:48:43;;;;;;;2.50;2.10;;;25.50;99.90;;;;;;4844415;29;20415;-67
2022/07/25 09:51:08;;;;;;;2.65;2.45;;;25.70;99.90;;;;;;4844252;29;20062;-67
2022/07/25 09:53:34;;;;;;;2.60;2.40;;;25.90;99.90;;;;;;4844551;29;20054;-66
2022/07/25 09:55:59;;;;;;;2.55;2.35;;;26.00;99.90;;;;;;4844884;29;20129;-68
2022/07/25 09:58:26;;;;;;;2.70;2.47;;;26.00;99.90;;;;;;4844647;29;20054;-67
2022/07/25 10:00:59;;;;;;;3.97;2.35;;;26.10;99.90;;;;;;4858549;29;20393;-67
2022/07/25 10:03:43;;;;;;;5.07;2.30;;;25.80;99.90;;;;;;4841963;29;20140;-67
2022/07/25 10:06:19;;;;;;;3.03;2.20;;;25.80;99.90;;;;;;4824018;29;20063;-67
2022/07/25 10:08:46;;;;;;;2.58;2.25;;;25.60;99.90;;;;;;4836748;29;20146;-67
2022/07/25 10:11:26;;;;;;;2.70;2.50;;;25.40;99.90;;;;;;4858807;29;20066;-66
2022/07/25 10:13:53;;;;;;;3.55;2.60;;;25.30;99.90;;;;;;4842097;29;20072;-67
2022/07/25 10:16:24;;;;;;;2.80;2.60;;;25.30;99.90;;;;;;4826779;29;20073;-67
2022/07/25 10:18:56;;;;;;;3.33;2.70;;;25.30;99.90;;;;;;4827597;29;20066;-67
2022/07/25 10:21:23;;;;;;;3.85;2.58;;;25.50;99.90;;;;;;4843074;29;20061;-67
2022/07/25 10:24:06;;;;;;;3.10;2.47;;;25.70;99.90;;;;;;4843207;29;20065;-67
2022/07/25 10:26:35;;;;;;;2.35;2.15;;;25.70;99.90;;;;;;4842285;29;20061;-66
2022/07/25 10:29:09;;;;;;;3.92;2.65;;;25.70;99.90;;;;;;4843219;29;20110;-67
2022/07/25 10:31:40;;;;;;;2.58;2.38;;;25.70;99.90;;;;;;4826818;29;20387;-67
2022/07/25 10:34:08;;;;;;;3.78;2.33;;;25.90;99.90;;;;;;4843214;29;20054;-66
2022/07/25 10:36:43;;;;;;;3.35;2.15;;;26.00;99.90;;;;;;4843385;29;20058;-67
2022/07/25 10:39:12;;;;;;;2.05;1.88;;;26.10;99.90;;;;;;4843680;29;20050;-67
2022/07/25 10:41:48;;;;;;;1.70;1.60;;;26.10;99.90;;;;;;4843389;29;20058;-65
2022/07/25 10:44:15;;;;;;;1.52;1.42;;;26.00;99.90;;;;;;4844279;29;20110;-65
2022/07/25 10:46:45;;;;;;;2.22;1.38;;;25.90;99.90;;;;;;4841604;29;20062;-65
2022/07/25 10:49:20;;;;;;;1.38;1.27;;;25.70;99.90;;;;;;4843854;29;20118;-65
2022/07/25 10:51:58;;;;;;;1.55;1.45;;;25.60;99.90;;;;;;4841366;29;20080;-66
2022/07/25 10:54:24;;;;;;;1.27;1.17;;;25.50;99.90;;;;;;4842540;29;20089;-66
2022/07/25 10:56:55;;;;;;;1.92;1.17;;;25.40;99.90;;;;;;4843413;29;20060;-67
2022/07/25 10:59:39;;;;;;;4.15;1.13;;;25.50;99.90;;;;;;4843132;29;20062;-67
2022/07/25 11:02:14;;;;;;;2.10;1.02;;;25.40;99.90;;;;;;4843052;29;20060;-66
2022/07/25 11:04:41;;;;;;;2.42;1.02;;;25.20;99.90;;;;;;4831819;29;20121;-67
2022/07/25 11:07:12;;;;;;;1.77;1.30;;;25.00;99.90;;;;;;4840487;29;20054;-67
2022/07/25 11:09:40;;;;;;;3.53;1.13;;;24.90;99.90;;;;;;4826472;29;20073;-67
2022/07/25 11:12:06;;;;;;;2.58;1.40;;;24.80;99.90;;;;;;4843522;29;20140;-67
2022/07/25 11:14:40;;;;;;;5.82;1.67;;;24.70;99.90;;;;;;4842867;29;20157;-67
2022/07/25 11:17:12;;;;;;;3.78;1.70;;;24.70;99.90;;;;;;4843016;29;20058;-66
2022/07/25 11:19:38;;;;;;;4.32;1.88;;;24.60;99.90;;;;;;4842746;29;20538;-67
2022/07/25 11:22:03;;;;;;;2.42;1.80;;;24.60;99.90;;;;;;4841553;29;20061;-67
2022/07/25 11:24:40;;;;;;;3.38;1.70;;;24.50;99.90;;;;;;4842750;29;20050;-67
2022/07/25 11:27:08;;;;;;;3.60;1.80;;;24.50;99.90;;;;;;4842985;29;20150;-67
2022/07/25 11:29:36;;;;;;;2.28;1.83;;;24.70;99.90;;;;;;4842883;29;20145;-67
2022/07/25 11:32:07;;;;;;;3.88;2.08;;;24.90;99.90;;;;;;4843175;29;20153;-67
2022/07/25 11:34:36;;;;;;;3.80;2.10;;;25.00;99.90;;;;;;4842660;29;20068;-66
2022/07/25 11:37:05;;;;;;;5.68;2.15;;;25.10;99.90;;;;;;4841390;29;20054;-67
2022/07/25 11:39:33;;;;;;;5.65;2.40;;;25.10;99.90;;;;;;4842787;29;20061;-66
2022/07/25 11:42:08;;;;;;;6.22;2.30;;;;;;;;;;4842661;29;20053;-67
2022/07/25 11:44:34;;;;;;;3.38;2.10;;;25.20;99.90;;;;;;4841297;29;20060;-66
2022/07/25 11:47:00;;;;;;;5.90;2.60;;;25.30;99.90;;;;;;4842603;29;20062;-66
2022/07/25 11:49:26;;;;;;;3.17;1.80;;;25.30;99.90;;;;;;4841085;29;20050;-66
2022/07/25 11:51:51;;;;;;;4.95;2.25;;;25.30;99.90;;;;;;4841411;29;20129;-66
2022/07/25 11:54:18;;;;;;;7.07;2.38;;;25.30;99.90;;;;;;4840979;29;20181;-66
2022/07/25 11:56:45;;;;;;;4.55;1.95;;;25.20;99.90;;;;;;4840817;29;20058;-66
2022/07/25 11:59:12;;;;;;;4.88;2.15;;;25.20;99.90;;;;;;4842019;29;20076;-66
2022/07/25 12:01:40;;;;;;;5.38;2.35;;;25.20;99.90;;;;;;4842375;29;20460;-66
2022/07/25 12:04:15;;;;;;;4.85;2.50;;;25.30;99.90;;;;;;4842166;29;20054;-66
2022/07/25 12:06:42;;;;;;;6.97;2.55;;;25.30;99.90;;;;;;4840862;29;20062;-66
2022/07/25 12:09:10;;;;;;;4.43;2.30;;;25.30;99.90;;;;;;4840816;29;20061;-66
2022/07/25 12:11:36;;;;;;;5.20;2.20;;;25.30;99.90;;;;;;4840691;29;20171;-66
2022/07/25 12:14:03;;;;;;;4.45;2.30;;;25.30;99.90;;;;;;4842066;29;20082;-67
2022/07/25 12:16:30;;;;;;;4.72;2.13;;;25.00;99.90;;;;;;4842195;29;20062;-66
2022/07/25 12:18:55;;;;;;;5.68;2.30;;;24.90;99.90;;;;;;4839502;29;20057;-66
2022/07/25 12:21:21;;;;;;;7.57;2.63;;;24.80;99.90;;;;;;4841751;29;20404;-67
2022/07/25 12:23:46;;;;;;;3.67;1.92;;;24.80;99.90;;;;;;4839646;29;20050;-66
2022/07/25 12:26:13;;;;;;;6.20;1.98;;;24.90;99.90;;;;;;4842197;29;20066;-65
2022/07/25 12:28:39;;;;;;;8.00;2.42;;;24.90;99.90;;;;;;4842070;29;20058;-65
2022/07/25 12:31:05;;;;;;;9.25;2.20;;;24.90;99.90;;;;;;4841592;29;20092;-66
2022/07/25 12:33:31;;;;;;;5.10;1.73;;;25.00;99.90;;;;;;4839748;29;20118;-66
2022/07/25 12:35:58;;;;;;;3.70;1.65;;;25.10;99.90;;;;;;4839720;29;20522;-66
2022/07/25 12:38:24;;;;;;;7.22;2.05;;;24.90;99.90;;;;;;4838638;29;20054;-66
2022/07/25 12:40:51;;;;;;;5.93;2.03;;;25.10;99.90;;;;;;4840079;29;20062;-66
2022/07/25 12:43:17;;;;;;;5.90;1.98;;;24.90;99.90;;;;;;4842119;29;20096;-66
2022/07/25 12:45:43;;;;;;;5.53;1.80;;;25.00;99.90;;;;;;4839499;29;20061;-65
2022/07/25 12:48:09;;;;;;;3.75;1.50;;;25.10;99.90;;;;;;4835473;29;20058;-66